Hartford, Connecticut
Current Conditions -  °F | °C
As of 6:24 AM on Sunday 21 Dec 2014 (Local Time) from KHFD Reporting Station
Haze Haze  
Wind Chill: 26°   Ceiling: 1800
Heat Index: 31°   Visibility: 4mi
Dew Point: 29°   Wind: 5mph
Humidity: 92%   Direction: NA
Pressure: 30.3"   Gusts: NA
Location:  41.76°N, 72.67°W
Report Text: KHFD 211124Z VRB04KT 4SM BR SCT007 OVC018 M01/M02 A3030 RMK AO2 SNE19 P0000 T10061017
Loading
Personal Weather Stations






























Interactive Weather Map New forecast layout! Learn more

10-Day Weather Forecast

Advertisements
Track Severe Weather on mobile